createdAt,value
2022-09-28T00:01:28.156Z,78.35
2022-09-28T00:03:58.107Z,78.19
2022-09-28T00:06:26.366Z,78.27
2022-09-28T00:08:52.769Z,77.81
2022-09-28T00:11:21.415Z,78.04
2022-09-28T00:13:53.215Z,78.29
2022-09-28T00:16:25.300Z,78.44
2022-09-28T00:18:52.861Z,77.85
2022-09-28T00:21:24.661Z,78.24
2022-09-28T00:24:11.385Z,78.27
2022-09-28T00:26:40.987Z,77.67
2022-09-28T00:29:15.233Z,78.30
2022-09-28T00:31:42.417Z,77.79
2022-09-28T00:34:08.860Z,77.94
2022-09-28T00:36:35.618Z,78.07
2022-09-28T00:39:07.316Z,78.16
2022-09-28T00:41:35.470Z,78.26
2022-09-28T00:44:24.193Z,77.96
2022-09-28T00:46:54.863Z,78.08
2022-09-28T00:49:47.782Z,78.29
2022-09-28T00:52:21.865Z,77.94
2022-09-28T00:54:51.647Z,78.29
2022-09-28T00:57:19.014Z,77.94
2022-09-28T00:59:45.601Z,77.67
2022-09-28T01:02:12.104Z,78.05
2022-09-28T01:04:39.153Z,78.10
2022-09-28T01:07:08.772Z,78.24
2022-09-28T01:09:39.173Z,78.11
2022-09-28T01:12:05.921Z,78.08
2022-09-28T01:14:32.615Z,77.98
2022-09-28T01:17:15.357Z,77.86
2022-09-28T01:20:15.692Z,78.42
2022-09-28T01:23:12.943Z,77.67
2022-09-28T01:25:59.309Z,78.22
2022-09-28T01:28:28.760Z,78.29
2022-09-28T01:30:57.958Z,78.08
2022-09-28T01:33:28.776Z,78.44
2022-09-28T01:36:02.624Z,78.98
2022-09-28T01:38:33.973Z,78.69
2022-09-28T01:41:01.125Z,78.47
2022-09-28T01:43:29.873Z,78.59
2022-09-28T01:46:01.686Z,78.98
2022-09-28T01:48:37.186Z,78.57
2022-09-28T01:51:10.146Z,78.62
2022-09-28T01:53:44.681Z,78.67
2022-09-28T01:56:23.407Z,78.55
2022-09-28T01:58:57.845Z,78.70
2022-09-28T02:01:35.129Z,78.59
2022-09-28T02:04:08.627Z,78.85
2022-09-28T02:07:07.478Z,79.07
2022-09-28T02:09:44.471Z,78.68
2022-09-28T02:12:19.492Z,78.61
2022-09-28T02:14:49.715Z,78.97
2022-09-28T02:17:16.584Z,78.43
2022-09-28T02:19:47.190Z,78.61
2022-09-28T02:22:37.162Z,78.10
2022-09-28T02:25:36.072Z,77.94
2022-09-28T02:28:06.737Z,78.34
2022-09-28T02:30:36.855Z,78.55
2022-09-28T02:33:16.592Z,78.48
2022-09-28T02:35:43.437Z,78.36
2022-09-28T02:38:14.305Z,77.91
2022-09-28T02:40:57.581Z,78.12
2022-09-28T02:43:31.466Z,77.97
2022-09-28T02:46:16.727Z,78.14
2022-09-28T02:49:22.145Z,78.18
2022-09-28T02:52:03.614Z,78.36
2022-09-28T02:54:36.010Z,78.45
2022-09-28T02:57:33.887Z,78.26
2022-09-28T03:00:10.055Z,78.42
2022-09-28T03:02:55.296Z,78.22
2022-09-28T03:05:52.766Z,78.44
2022-09-28T03:08:33.220Z,78.83
2022-09-28T03:11:10.137Z,78.28
2022-09-28T03:13:37.044Z,78.59
2022-09-28T03:16:11.485Z,78.91
2022-09-28T03:18:38.838Z,79.30
2022-09-28T03:21:05.788Z,79.13
2022-09-28T03:23:32.525Z,79.16
2022-09-28T03:26:01.304Z,78.70
2022-09-28T03:28:28.086Z,79.13
2022-09-28T03:30:55.040Z,78.71
2022-09-28T03:33:21.898Z,79.19
2022-09-28T03:35:50.323Z,78.94
2022-09-28T03:38:18.682Z,78.93
2022-09-28T03:41:05.879Z,78.48
2022-09-28T03:43:35.321Z,78.93
2022-09-28T03:46:03.431Z,78.52
2022-09-28T03:48:35.568Z,78.52
2022-09-28T03:51:06.142Z,78.61
2022-09-28T03:53:33.592Z,78.35
2022-09-28T03:56:11.695Z,79.04
2022-09-28T03:58:39.052Z,78.28
2022-09-28T04:01:15.898Z,78.10
2022-09-28T04:03:45.945Z,78.24
2022-09-28T04:06:13.284Z,78.16
2022-09-28T04:08:40.041Z,78.00
2022-09-28T04:11:06.641Z,78.19
2022-09-28T04:13:33.640Z,78.29
2022-09-28T04:16:01.411Z,78.14
2022-09-28T04:18:32.668Z,78.52
2022-09-28T04:21:07.731Z,78.73
2022-09-28T04:23:40.256Z,78.21
2022-09-28T04:26:13.089Z,78.73
2022-09-28T04:29:01.578Z,78.69
2022-09-28T04:31:36.970Z,78.46
2022-09-28T04:34:04.444Z,78.50
2022-09-28T04:36:31.327Z,78.21
2022-09-28T04:38:57.734Z,78.60
2022-09-28T04:41:26.859Z,78.70
2022-09-28T04:43:53.338Z,78.75
2022-09-28T04:46:20.152Z,78.59
2022-09-28T04:49:01.157Z,78.42
2022-09-28T04:51:46.235Z,78.48
2022-09-28T04:54:12.691Z,78.30
2022-09-28T04:56:39.103Z,78.25
2022-09-28T04:59:05.776Z,78.15
2022-09-28T05:01:32.246Z,78.16
2022-09-28T05:03:58.685Z,78.42
2022-09-28T05:06:37.274Z,78.12
2022-09-28T05:09:06.265Z,78.02
2022-09-28T05:11:33.151Z,77.76
2022-09-28T05:13:59.867Z,78.05
2022-09-28T05:16:26.762Z,78.18
2022-09-28T05:19:12.465Z,79.39
2022-09-28T05:21:44.089Z,78.33
2022-09-28T05:24:11.982Z,77.96
2022-09-28T05:26:39.357Z,78.15
2022-09-28T05:29:07.490Z,77.89
2022-09-28T05:31:50.666Z,78.07
2022-09-28T05:34:32.350Z,78.17
2022-09-28T05:36:59.174Z,78.38
2022-09-28T05:39:25.669Z,78.19
2022-09-28T05:41:52.090Z,78.12
2022-09-28T05:44:18.601Z,78.35
2022-09-28T05:46:46.791Z,77.88
2022-09-28T05:49:13.642Z,78.02
2022-09-28T05:51:40.306Z,77.83
2022-09-28T05:54:06.734Z,78.38
2022-09-28T05:56:40.762Z,77.94
2022-09-28T05:59:07.900Z,78.02
2022-09-28T06:01:35.806Z,77.83
2022-09-28T06:04:03.538Z,77.89
2022-09-28T06:06:31.202Z,78.11
2022-09-28T06:08:57.572Z,78.23
2022-09-28T06:11:48.206Z,78.25
2022-09-28T06:14:29.911Z,78.20
2022-09-28T06:16:56.430Z,78.44
2022-09-28T06:19:22.821Z,78.23
2022-09-28T06:22:15.280Z,78.33
2022-09-28T06:24:47.703Z,78.10
2022-09-28T06:27:14.098Z,78.57
2022-09-28T06:29:40.530Z,78.35
2022-09-28T06:32:07.499Z,78.23
2022-09-28T06:34:35.506Z,78.27
2022-09-28T06:37:04.544Z,77.84
2022-09-28T06:39:31.547Z,77.72
2022-09-28T06:41:58.697Z,77.68
2022-09-28T06:44:37.953Z,77.62
2022-09-28T06:47:24.131Z,77.66
2022-09-28T06:50:03.792Z,77.83
2022-09-28T06:52:54.005Z,77.69
2022-09-28T06:55:41.090Z,77.61
2022-09-28T06:58:11.044Z,78.00
2022-09-28T07:00:39.105Z,78.48
2022-09-28T07:03:16.485Z,78.44
2022-09-28T07:06:00.704Z,78.05
2022-09-28T07:08:41.415Z,78.22
2022-09-28T07:11:26.906Z,78.73
2022-09-28T07:14:20.223Z,79.27
2022-09-28T07:17:11.535Z,78.82
2022-09-28T07:19:39.896Z,79.04
2022-09-28T07:22:06.309Z,78.86
2022-09-28T07:24:33.023Z,78.77
2022-09-28T07:27:37.000Z,78.75
2022-09-28T07:30:33.453Z,79.38
2022-09-28T07:33:08.687Z,79.30
2022-09-28T07:35:54.322Z,79.47
2022-09-28T07:38:23.283Z,79.10
2022-09-28T07:41:08.524Z,79.20
2022-09-28T07:43:35.982Z,79.18
2022-09-28T07:46:03.499Z,78.66
2022-09-28T07:48:37.879Z,78.70
2022-09-28T07:51:13.699Z,78.86
2022-09-28T07:53:56.225Z,79.10
2022-09-28T07:56:41.026Z,78.94
2022-09-28T07:59:18.915Z,78.90
2022-09-28T08:02:03.807Z,78.85
2022-09-28T08:04:30.390Z,78.64
2022-09-28T08:06:56.830Z,78.62
2022-09-28T08:09:23.260Z,78.92
2022-09-28T08:12:24.577Z,78.98
2022-09-28T08:15:12.001Z,78.83
2022-09-28T08:17:54.909Z,78.54
2022-09-28T08:20:51.850Z,78.58
2022-09-28T08:23:20.257Z,78.93
2022-09-28T08:25:53.898Z,78.22
2022-09-28T08:28:23.642Z,78.43
2022-09-28T08:30:54.049Z,78.67
2022-09-28T08:33:32.732Z,78.79
2022-09-28T08:36:17.847Z,78.66
2022-09-28T08:39:10.262Z,78.74
2022-09-28T08:42:11.022Z,78.65
2022-09-28T08:45:09.140Z,78.22
2022-09-28T08:48:31.846Z,78.10
2022-09-28T08:51:28.564Z,78.13
2022-09-28T08:54:11.887Z,78.39
2022-09-28T08:57:01.865Z,77.84
2022-09-28T08:59:53.406Z,77.39
2022-09-28T09:02:39.496Z,77.11
2022-09-28T09:05:27.213Z,76.99
2022-09-28T09:08:12.609Z,76.56
2022-09-28T09:10:45.843Z,76.35
2022-09-28T09:13:33.152Z,75.59
2022-09-28T09:16:22.426Z,75.42
2022-09-28T09:19:17.248Z,75.38
2022-09-28T09:22:09.939Z,74.96
2022-09-28T09:24:52.782Z,74.72
2022-09-28T09:27:42.462Z,74.38
2022-09-28T09:30:13.680Z,73.94
2022-09-28T09:32:43.698Z,73.97
2022-09-28T09:35:31.844Z,73.60
2022-09-28T09:38:31.945Z,72.51
2022-09-28T09:41:32.440Z,72.37
2022-09-28T09:44:38.655Z,71.79
2022-09-28T09:47:47.841Z,71.87
2022-09-28T09:50:39.849Z,71.42
2022-09-28T09:53:28.062Z,71.19
2022-09-28T09:56:01.588Z,70.63
2022-09-28T09:58:39.873Z,70.83
2022-09-28T10:01:35.600Z,70.82
2022-09-28T10:04:24.755Z,70.24
2022-09-28T10:06:58.684Z,70.06
2022-09-28T10:09:34.641Z,70.35
2022-09-28T10:12:23.108Z,70.54
2022-09-28T10:14:50.498Z,70.28
2022-09-28T10:17:19.649Z,70.46
2022-09-28T10:20:05.018Z,70.73
2022-09-28T10:22:56.978Z,70.58
2022-09-28T10:25:24.902Z,70.40
2022-09-28T10:27:52.439Z,70.25
2022-09-28T10:30:25.029Z,70.58
2022-09-28T10:32:58.843Z,70.71
2022-09-28T10:35:40.934Z,70.63
2022-09-28T10:38:18.502Z,71.01
2022-09-28T10:40:55.258Z,70.71
2022-09-28T10:43:38.305Z,70.51
2022-09-28T10:46:21.657Z,69.87
2022-09-28T10:49:00.999Z,70.59
2022-09-28T10:51:44.313Z,70.75
2022-09-28T10:54:18.973Z,70.94
2022-09-28T10:56:48.573Z,71.46
2022-09-28T10:59:29.252Z,71.63
2022-09-28T11:02:30.393Z,71.88
2022-09-28T11:05:06.889Z,72.74
2022-09-28T11:07:47.808Z,72.74
2022-09-28T11:10:26.240Z,72.83
2022-09-28T11:12:57.725Z,72.44
2022-09-28T11:15:29.849Z,72.40
2022-09-28T11:18:18.558Z,72.54
2022-09-28T11:20:45.616Z,72.64
2022-09-28T11:23:20.370Z,72.57
2022-09-28T11:25:58.378Z,72.92
2022-09-28T11:28:32.572Z,72.76
2022-09-28T11:31:02.374Z,73.15
2022-09-28T11:34:05.974Z,73.17
2022-09-28T11:37:01.761Z,73.56
2022-09-28T11:39:50.986Z,73.86
2022-09-28T11:42:33.870Z,73.96
2022-09-28T11:45:15.506Z,74.33
2022-09-28T11:47:47.500Z,74.53
2022-09-28T11:50:24.465Z,74.65
2022-09-28T11:53:09.710Z,74.80
2022-09-28T11:55:47.414Z,74.66
2022-09-28T11:58:27.232Z,74.49
2022-09-28T12:01:26.115Z,74.88
2022-09-28T12:04:17.022Z,74.87
2022-09-28T12:06:53.606Z,74.58
2022-09-28T12:09:36.377Z,74.29
2022-09-28T12:12:24.816Z,73.95
2022-09-28T12:14:59.576Z,73.69
2022-09-28T12:17:34.416Z,72.93
2022-09-28T12:20:12.221Z,72.39
2022-09-28T12:22:44.461Z,71.82
2022-09-28T12:25:17.210Z,73.34
2022-09-28T12:27:51.309Z,72.89
2022-09-28T12:30:26.536Z,69.96
2022-09-28T12:33:04.506Z,69.17
2022-09-28T12:35:52.807Z,69.38
2022-09-28T12:39:21.819Z,69.28
2022-09-28T12:42:08.272Z,69.30
2022-09-28T12:44:57.157Z,69.59
2022-09-28T12:47:45.790Z,70.14
2022-09-28T12:50:39.909Z,70.98
2022-09-28T12:53:32.132Z,71.18
2022-09-28T12:56:04.542Z,71.34
2022-09-28T12:59:06.834Z,71.82
2022-09-28T13:02:00.891Z,72.02
2022-09-28T13:05:00.444Z,72.63
2022-09-28T13:07:49.840Z,73.12
2022-09-28T13:10:32.497Z,73.73
2022-09-28T13:13:07.712Z,74.41
2022-09-28T13:15:52.953Z,75.04
2022-09-28T13:18:30.877Z,75.39
2022-09-28T13:21:29.758Z,75.52
2022-09-28T13:24:14.405Z,76.03
2022-09-28T13:26:47.822Z,76.27
2022-09-28T13:29:18.753Z,76.09
2022-09-28T13:31:58.126Z,75.81
2022-09-28T13:34:27.525Z,76.10
2022-09-28T13:37:21.584Z,75.75
2022-09-28T13:39:52.002Z,75.62
2022-09-28T13:42:46.137Z,75.69
2022-09-28T13:45:32.225Z,75.86
2022-09-28T13:48:15.982Z,75.82
2022-09-28T13:50:58.125Z,75.90
2022-09-28T13:53:40.790Z,76.13
2022-09-28T13:56:44.718Z,75.94
2022-09-28T13:59:28.652Z,76.07
2022-09-28T14:02:31.096Z,76.17
2022-09-28T14:05:04.354Z,76.15
2022-09-28T14:07:33.606Z,76.39
2022-09-28T14:10:24.480Z,75.95
2022-09-28T14:12:52.857Z,76.14
2022-09-28T14:15:39.428Z,76.13
2022-09-28T14:18:21.155Z,76.15
2022-09-28T14:20:54.580Z,75.98
2022-09-28T14:23:56.351Z,75.74
2022-09-28T14:26:59.982Z,75.84
2022-09-28T14:29:36.394Z,76.11
2022-09-28T14:32:21.059Z,75.68
2022-09-28T14:34:56.664Z,75.87
2022-09-28T14:37:58.077Z,75.92
2022-09-28T14:40:49.920Z,76.29
2022-09-28T14:43:34.904Z,75.99
2022-09-28T14:46:19.703Z,75.84
2022-09-28T14:49:05.711Z,75.64
2022-09-28T14:51:34.416Z,76.02
2022-09-28T14:54:05.050Z,76.29
2022-09-28T14:56:48.296Z,76.01
2022-09-28T14:59:25.175Z,75.48
2022-09-28T15:02:07.790Z,75.62
2022-09-28T15:04:39.979Z,75.76
2022-09-28T15:07:06.461Z,75.77
2022-09-28T15:09:35.257Z,75.50
2022-09-28T15:12:29.451Z,75.39
2022-09-28T15:15:05.483Z,75.30
2022-09-28T15:17:39.527Z,75.36
2022-09-28T15:20:17.050Z,74.96
2022-09-28T15:22:48.113Z,75.15
2022-09-28T15:25:19.931Z,75.14
2022-09-28T15:27:52.472Z,75.18
2022-09-28T15:30:31.707Z,75.46
2022-09-28T15:33:20.335Z,75.50
2022-09-28T15:36:02.372Z,75.60
2022-09-28T15:38:30.996Z,75.83
2022-09-28T15:40:57.788Z,75.98
2022-09-28T15:43:32.844Z,76.48
2022-09-28T15:46:13.494Z,76.51
2022-09-28T15:48:55.868Z,76.60
2022-09-28T15:51:24.459Z,76.71
2022-09-28T15:54:19.334Z,76.92
2022-09-28T15:57:01.871Z,76.99
2022-09-28T15:59:39.742Z,76.98
2022-09-28T16:02:17.248Z,77.15
2022-09-28T16:05:00.448Z,77.11
2022-09-28T16:07:27.447Z,77.14
2022-09-28T16:10:00.194Z,77.23
2022-09-28T16:12:40.587Z,77.24
2022-09-28T16:15:28.709Z,77.44
2022-09-28T16:18:00.550Z,76.98
2022-09-28T16:20:37.354Z,77.40
2022-09-28T16:23:15.730Z,77.46
2022-09-28T16:25:53.386Z,77.32
2022-09-28T16:28:37.822Z,77.30
2022-09-28T16:31:27.080Z,77.52
2022-09-28T16:34:16.921Z,77.64
2022-09-28T16:36:45.826Z,77.49
2022-09-28T16:39:14.135Z,77.51
2022-09-28T16:41:44.051Z,77.39
2022-09-28T16:44:23.367Z,77.30
2022-09-28T16:46:52.109Z,77.06
2022-09-28T16:49:18.938Z,76.90
2022-09-28T16:51:47.338Z,76.94
2022-09-28T16:54:36.735Z,77.80
2022-09-28T16:57:05.284Z,77.78
2022-09-28T16:59:32.310Z,77.50
2022-09-28T17:01:58.843Z,77.46
2022-09-28T17:04:26.179Z,77.78
2022-09-28T17:06:54.643Z,77.79
2022-09-28T17:09:22.682Z,77.86
2022-09-28T17:11:56.558Z,77.94
2022-09-28T17:14:23.764Z,78.17
2022-09-28T17:17:12.535Z,78.05
2022-09-28T17:19:39.913Z,78.02
2022-09-28T17:22:07.853Z,78.10
2022-09-28T17:24:34.251Z,78.26
2022-09-28T17:27:00.997Z,78.19
2022-09-28T17:29:27.835Z,78.05
2022-09-28T17:31:54.981Z,78.05
2022-09-28T17:34:21.786Z,77.78
2022-09-28T17:36:48.318Z,77.94
2022-09-28T17:39:17.407Z,78.06
2022-09-28T17:41:44.170Z,78.27
2022-09-28T17:44:12.143Z,78.17
2022-09-28T17:46:45.631Z,78.39
2022-09-28T17:49:12.374Z,78.43
2022-09-28T17:51:38.814Z,78.62
2022-09-28T17:54:06.757Z,78.72
2022-09-28T17:56:33.683Z,78.85
2022-09-28T17:59:05.427Z,78.98
2022-09-28T18:01:35.457Z,79.22
2022-09-28T18:04:03.870Z,78.97
2022-09-28T18:06:33.337Z,79.05
2022-09-28T18:09:00.006Z,79.35
2022-09-28T18:11:26.526Z,79.49
2022-09-28T18:13:52.878Z,79.31
2022-09-28T18:16:19.521Z,79.33
2022-09-28T18:18:47.296Z,78.99
2022-09-28T18:21:14.013Z,79.04
2022-09-28T18:23:40.396Z,78.99
2022-09-28T18:26:14.025Z,78.75
2022-09-28T18:28:40.731Z,78.79
2022-09-28T18:31:09.373Z,78.49
2022-09-28T18:33:36.567Z,78.87
2022-09-28T18:36:04.505Z,78.60
2022-09-28T18:38:31.070Z,78.57
2022-09-28T18:40:57.728Z,78.75
2022-09-28T18:43:24.126Z,78.47
2022-09-28T18:45:50.472Z,78.48
2022-09-28T18:48:16.890Z,78.04
2022-09-28T18:50:43.570Z,78.11
2022-09-28T18:53:12.510Z,78.15
2022-09-28T18:55:43.043Z,78.17
2022-09-28T18:58:10.535Z,78.17
2022-09-28T19:00:39.337Z,77.98
2022-09-28T19:03:06.844Z,78.27
2022-09-28T19:05:34.949Z,78.25
2022-09-28T19:08:01.625Z,78.19
2022-09-28T19:10:28.077Z,78.08
2022-09-28T19:12:54.445Z,78.03
2022-09-28T19:15:22.454Z,78.49
2022-09-28T19:17:49.779Z,78.17
2022-09-28T19:20:16.389Z,78.25
2022-09-28T19:22:44.103Z,77.99
2022-09-28T19:25:10.951Z,78.48
2022-09-28T19:27:37.386Z,78.39
2022-09-28T19:30:04.012Z,78.30
2022-09-28T19:32:30.350Z,78.39
2022-09-28T19:34:56.699Z,78.12
2022-09-28T19:37:23.073Z,78.33
2022-09-28T19:39:49.434Z,78.47
2022-09-28T19:42:15.771Z,78.20
2022-09-28T19:44:42.307Z,78.31
2022-09-28T19:47:09.882Z,78.31
2022-09-28T19:49:38.555Z,78.51
2022-09-28T19:52:13.323Z,78.06
2022-09-28T19:54:43.720Z,78.17
2022-09-28T19:57:11.525Z,78.43
2022-09-28T19:59:38.341Z,78.29
2022-09-28T20:02:10.151Z,78.16
2022-09-28T20:04:36.697Z,78.41
2022-09-28T20:07:04.219Z,78.25
2022-09-28T20:09:32.145Z,77.91
2022-09-28T20:11:58.490Z,78.23
2022-09-28T20:14:27.912Z,78.44
2022-09-28T20:16:57.100Z,78.34
2022-09-28T20:19:23.518Z,78.01
2022-09-28T20:21:50.762Z,78.07
2022-09-28T20:24:17.510Z,77.82
2022-09-28T20:26:45.571Z,78.05
2022-09-28T20:29:12.294Z,77.44
2022-09-28T20:31:38.753Z,78.07
2022-09-28T20:34:06.133Z,77.79
2022-09-28T20:36:33.272Z,77.84
2022-09-28T20:39:03.612Z,77.80
2022-09-28T20:41:35.476Z,77.82
2022-09-28T20:44:05.738Z,77.91
2022-09-28T20:46:36.342Z,77.59
2022-09-28T20:49:04.373Z,77.70
2022-09-28T20:51:31.406Z,77.32
2022-09-28T20:53:59.114Z,77.51
2022-09-28T20:56:30.970Z,77.79
2022-09-28T20:58:57.520Z,77.67
2022-09-28T21:01:26.753Z,78.10
2022-09-28T21:03:58.170Z,77.41
2022-09-28T21:06:27.059Z,77.49
2022-09-28T21:08:54.217Z,77.70
2022-09-28T21:11:22.760Z,77.55
2022-09-28T21:13:52.833Z,77.34
2022-09-28T21:16:19.509Z,77.43
2022-09-28T21:18:45.969Z,77.70
2022-09-28T21:21:18.221Z,77.37
2022-09-28T21:23:45.037Z,77.00
2022-09-28T21:26:15.631Z,77.47
2022-09-28T21:28:44.521Z,77.72
2022-09-28T21:31:11.932Z,77.59
2022-09-28T21:33:38.392Z,77.33
2022-09-28T21:36:07.091Z,77.09
2022-09-28T21:38:34.226Z,77.40
2022-09-28T21:41:00.637Z,76.88
2022-09-28T21:43:29.983Z,77.41
2022-09-28T21:45:57.982Z,77.26
2022-09-28T21:48:26.586Z,77.01
2022-09-28T21:51:03.083Z,76.92
2022-09-28T21:53:32.191Z,76.90
2022-09-28T21:56:00.075Z,76.91
2022-09-28T21:58:29.462Z,77.26
2022-09-28T22:01:14.675Z,77.26
2022-09-28T22:03:43.854Z,77.25
2022-09-28T22:06:11.241Z,77.35
2022-09-28T22:08:38.318Z,76.99
2022-09-28T22:11:06.429Z,76.66
2022-09-28T22:13:35.554Z,77.22
2022-09-28T22:16:02.539Z,76.76
2022-09-28T22:18:30.988Z,77.19
2022-09-28T22:20:59.246Z,76.97
2022-09-28T22:23:25.864Z,77.24
2022-09-28T22:25:58.265Z,77.20
2022-09-28T22:28:24.726Z,76.92
2022-09-28T22:30:51.115Z,77.02
2022-09-28T22:33:17.517Z,76.65
2022-09-28T22:35:43.873Z,77.13
2022-09-28T22:38:10.238Z,77.29
2022-09-28T22:40:36.799Z,77.35
2022-09-28T22:43:03.182Z,76.70
2022-09-28T22:45:30.048Z,77.37
2022-09-28T22:47:56.443Z,77.38
2022-09-28T22:50:22.794Z,76.64
2022-09-28T22:52:49.161Z,77.13
2022-09-28T22:55:15.585Z,77.19
2022-09-28T22:57:41.925Z,77.04
2022-09-28T23:00:08.613Z,77.32
2022-09-28T23:02:35.015Z,77.06
2022-09-28T23:05:01.497Z,76.96
2022-09-28T23:07:27.855Z,77.17
2022-09-28T23:09:54.233Z,76.88
2022-09-28T23:12:20.621Z,76.72
2022-09-28T23:14:46.986Z,76.64
2022-09-28T23:17:13.323Z,76.82
2022-09-28T23:19:39.801Z,76.73
2022-09-28T23:22:06.145Z,76.79
2022-09-28T23:24:32.481Z,76.70
2022-09-28T23:26:58.825Z,76.75
2022-09-28T23:29:25.205Z,76.68
2022-09-28T23:31:51.568Z,76.54
2022-09-28T23:34:17.980Z,76.28
2022-09-28T23:36:44.462Z,76.73
2022-09-28T23:39:11.617Z,76.90
2022-09-28T23:41:38.008Z,76.92
2022-09-28T23:44:04.517Z,76.26
2022-09-28T23:46:30.903Z,76.25
2022-09-28T23:48:57.360Z,76.87
2022-09-28T23:51:23.732Z,76.77
2022-09-28T23:53:50.223Z,77.03
2022-09-28T23:56:16.550Z,76.85
2022-09-28T23:58:42.973Z,76.26
